Time;durP1;ratioP1;P1;durP2;ratioP2;P2;SDS_P1;SDS_P2;PMS_P1;PMS_P2;Temp;Humidity;BMP_temperature;BMP_pressure;BME280_temperature;BME280_humidity;BME280_pressure;Samples;Min_cycle;Max_cycle;Signal;HPM_P1;HPM_P2
2022/10/30 00:00:42;;;;;;;;;;;;;;;15.27;64.71;99969.17;1719881;80;21249;-73
2022/10/30 00:03:12;;;;;;;;;;;;;;;15.24;64.79;99966.81;1708874;82;20434;-74
2022/10/30 00:05:45;;;;;;;;;;;;;;;15.24;64.87;99967.31;1714107;81;21816;-74
2022/10/30 00:08:12;;;;;;;;;;;;;;;15.21;64.93;99975.12;1732507;80;20171;-74
2022/10/30 00:10:38;;;;;;;;;;;;;;;15.20;65.10;99975.30;1727409;80;20163;-73
2022/10/30 00:13:07;;;;;;;;;;;;;;;15.19;65.13;99979.78;1740868;81;20189;-74
2022/10/30 00:15:34;;;;;;;;;;;;;;;15.18;65.22;99980.78;1732316;80;20163;-74
2022/10/30 00:18:01;;;;;;;;;;;;;;;15.15;65.30;99973.97;1723947;80;21855;-75
2022/10/30 00:20:27;;;;;;;;;;;;;;;15.13;65.37;99967.11;1717002;81;20603;-74
2022/10/30 00:22:55;;;;;;;;;;;;;;;15.09;65.50;99967.95;1715136;81;20214;-74
2022/10/30 00:25:21;;;;;;;;;;;;;;;15.07;65.60;99963.79;1728120;80;21093;-75
2022/10/30 00:27:48;;;;;;;;;;;;;;;15.04;65.81;99965.42;1725039;81;20206;-74
2022/10/30 00:30:15;;;;;;;;;;;;;;;15.01;65.94;99958.59;1714307;80;21825;-74
2022/10/30 00:32:41;;;;;;;;;;;;;;;14.98;66.09;99961.59;1709316;81;20140;-76
2022/10/30 00:35:09;;;;;;;;;;;;;;;14.96;66.19;99958.73;1704751;82;20176;-74
2022/10/30 00:37:35;;;;;;;;;;;;;;;14.93;66.38;99958.56;1715483;80;20442;-74
2022/10/30 00:40:03;;;;;;;;;;;;;;;14.91;66.48;99963.21;1726128;81;20173;-74
2022/10/30 00:42:31;;;;;;;;;;;;;;;14.91;66.58;99965.05;1723580;80;22489;-75
2022/10/30 00:44:58;;;;;;;;;;;;;;;14.91;66.63;99962.37;1737331;80;20740;-75
2022/10/30 00:47:36;;;;;;;;;;;;;;;14.90;66.76;99961.55;1744117;80;20244;-75
2022/10/30 00:50:18;;;;;;;;;;;;;;;14.88;66.87;99961.72;1713733;81;21014;-75
2022/10/30 00:52:48;;;;;;;;;;;;;;;14.87;66.97;99956.56;1719741;80;20220;-75
2022/10/30 00:55:18;;;;;;;;;;;;;;;14.85;67.15;99952.70;1721574;80;21916;-76
2022/10/30 00:57:44;;;;;;;;;;;;;;;14.85;67.36;99957.19;1749888;80;20193;-74
2022/10/30 01:00:11;;;;;;;;;;;;;;;14.84;67.37;99961.67;1713033;81;20999;-75
2022/10/30 01:02:38;;;;;;;;;;;;;;;14.84;67.47;99957.69;1716509;80;20412;-75
2022/10/30 01:05:05;;;;;;;;;;;;;;;14.83;67.59;99961.34;1718153;82;20274;-75
2022/10/30 01:07:31;;;;;;;;;;;;;;;14.84;67.66;99958.19;1726411;80;21871;-75
2022/10/30 01:09:58;;;;;;;;;;;;;;;14.84;67.68;99957.69;1719598;81;20829;-76
2022/10/30 01:12:25;;;;;;;;;;;;;;;14.84;67.72;99952.38;1711459;81;20180;-74
2022/10/30 01:14:54;;;;;;;;;;;;;;;14.87;67.67;99954.73;1720997;81;20165;-75
2022/10/30 01:17:32;;;;;;;;;;;;;;;14.86;67.70;99958.39;1708279;81;20185;-74
2022/10/30 01:20:12;;;;;;;;;;;;;;;14.85;67.75;99952.70;1713158;81;21823;-75
2022/10/30 01:23:10;;;;;;;;;;;;;;;14.84;67.80;99954.20;1710976;81;20281;-75
2022/10/30 01:25:57;;;;;;;;;;;;;;;14.83;67.88;99945.39;1709677;81;20478;-74
2022/10/30 01:28:40;;;;;;;;;;;;;;;14.84;68.08;99958.19;1712034;81;20923;-74
2022/10/30 01:31:14;;;;;;;;;;;;;;;14.80;68.12;99951.03;1722435;82;20187;-75
2022/10/30 01:34:02;;;;;;;;;;;;;;;14.79;68.24;99953.86;1723638;81;20322;-75
2022/10/30 01:36:41;;;;;;;;;;;;;;;14.79;68.29;99956.52;1706759;81;20246;-74
2022/10/30 01:39:14;;;;;;;;;;;;;;;14.79;68.28;99956.02;1703258;81;20424;-74
2022/10/30 01:41:40;;;;;;;;;;;;;;;14.81;68.31;99959.34;1706255;82;20429;-74
2022/10/30 01:44:09;;;;;;;;;;;;;;;14.80;68.34;99948.37;1716173;81;20148;-74
2022/10/30 01:47:06;;;;;;;;;;;;;;;14.78;68.33;99945.05;1708343;82;21819;-74
2022/10/30 01:49:42;;;;;;;;;;;;;;;14.77;68.38;99953.19;1727756;80;21079;-75
2022/10/30 01:52:16;;;;;;;;;;;;;;;14.77;68.38;99949.20;1718710;81;20165;-74
2022/10/30 01:55:18;;;;;;;;;;;;;;;14.75;68.42;99949.34;1692617;81;20464;-75
2022/10/30 01:57:55;;;;;;;;;;;;;;;14.74;68.51;99951.66;1712122;80;20197;-74
2022/10/30 02:00:21;;;;;;;;;;;;;;;14.71;68.63;99949.83;1722200;80;21860;-74
2022/10/30 02:02:48;;;;;;;;;;;;;;;14.71;68.67;99948.00;1713626;82;20236;-76
2022/10/30 02:05:18;;;;;;;;;;;;;;;14.72;68.62;99947.50;1735079;80;20185;-75
2022/10/30 02:07:45;;;;;;;;;;;;;;;14.72;68.62;99948.34;1725734;80;20326;-74
2022/10/30 02:10:12;;;;;;;;;;;;;;;14.71;68.63;99944.02;1718638;80;20440;-75
2022/10/30 02:12:39;;;;;;;;;;;;;;;14.70;68.59;99942.35;1723999;81;22334;-76
2022/10/30 02:15:07;;;;;;;;;;;;;;;14.68;68.63;99934.20;1716687;81;20867;-75
2022/10/30 02:17:37;;;;;;;;;;;;;;;14.68;68.68;99947.50;1712483;81;20174;-75
2022/10/30 02:20:06;;;;;;;;;;;;;;;14.66;68.71;99943.64;1710479;81;20466;-75
2022/10/30 02:22:32;;;;;;;;;;;;;;;14.65;68.80;99951.78;1712153;81;20169;-74
2022/10/30 02:24:59;;;;;;;;;;;;;;;14.65;68.81;99941.98;1707746;82;21894;-75
2022/10/30 02:27:25;;;;;;;;;;;;;;;14.66;68.82;99958.76;1716330;80;20213;-75
2022/10/30 02:29:51;;;;;;;;;;;;;;;14.65;68.83;99963.73;1715473;82;20449;-75
2022/10/30 02:32:18;;;;;;;;;;;;;;;14.65;68.83;99962.41;1722312;81;21120;-75
2022/10/30 02:34:45;;;;;;;;;;;;;;;14.64;68.84;99962.91;1719005;81;20169;-74
2022/10/30 02:37:13;;;;;;;;;;;;;;;14.64;68.82;99964.23;1715407;82;21795;-74
2022/10/30 02:39:39;;;;;;;;;;;;;;;14.62;68.84;99948.95;1704184;82;20137;-74
2022/10/30 02:42:07;;;;;;;;;;;;;;;14.62;68.82;99951.61;1723605;81;20129;-75
2022/10/30 02:44:34;;;;;;;;;;;;;;;14.62;68.82;99949.45;1717099;81;20405;-75
2022/10/30 02:47:01;;;;;;;;;;;;;;;14.60;68.78;99949.61;1690807;81;38787;-75
2022/10/30 02:49:28;;;;;;;;;;;;;;;14.59;68.73;99939.97;1728593;80;21776;-74
2022/10/30 02:51:54;;;;;;;;;;;;;;;14.59;68.68;99951.93;1714110;81;20237;-75
2022/10/30 02:54:21;;;;;;;;;;;;;;;14.59;68.62;99947.45;1711001;82;20174;-74
2022/10/30 02:56:48;;;;;;;;;;;;;;;14.58;68.52;99941.80;1692924;82;21196;-74
2022/10/30 02:59:14;;;;;;;;;;;;;;;14.55;68.49;99947.41;1716763;80;20487;-74
2022/10/30 03:01:41;;;;;;;;;;;;;;;14.55;68.48;99937.27;1722965;80;21234;-73
2022/10/30 03:04:08;;;;;;;;;;;;;;;14.52;68.46;99937.59;1730638;80;20194;-73
2022/10/30 03:06:34;;;;;;;;;;;;;;;14.50;68.46;99952.38;1732501;81;20155;-73
2022/10/30 03:09:00;;;;;;;;;;;;;;;14.48;68.43;99949.55;1717006;81;20441;-73
2022/10/30 03:11:26;;;;;;;;;;;;;;;14.48;68.35;99936.27;1709649;82;20199;-73
2022/10/30 03:13:53;;;;;;;;;;;;;;;14.46;68.29;99939.55;1709524;80;21795;-74
2022/10/30 03:16:23;;;;;;;;;;;;;;;14.46;68.28;99956.81;1728533;81;20173;-74
2022/10/30 03:18:52;;;;;;;;;;;;;;;14.43;68.32;99953.13;1704814;82;20263;-74
2022/10/30 03:21:21;;;;;;;;;;;;;;;14.42;68.33;99944.32;1722076;81;20280;-75
2022/10/30 03:23:49;;;;;;;;;;;;;;;14.42;68.37;99951.46;1713530;80;20185;-74
2022/10/30 03:26:16;;;;;;;;;;;;;;;14.39;68.36;99952.62;1715789;81;21753;-74
2022/10/30 03:28:48;;;;;;;;;;;;;;;14.39;68.36;99943.81;1724540;81;20213;-74
2022/10/30 03:31:16;;;;;;;;;;;;;;;14.38;68.38;99948.76;1742718;80;20453;-74
2022/10/30 03:33:43;;;;;;;;;;;;;;;14.36;68.35;99941.45;1729614;81;20488;-75
2022/10/30 03:36:12;;;;;;;;;;;;;;;14.36;68.35;99945.44;1708687;81;20168;-74
2022/10/30 03:38:40;;;;;;;;;;;;;;;14.33;68.42;99942.11;1704016;82;20356;-78
2022/10/30 03:41:08;;;;;;;;;;;;;;;14.32;68.48;99935.13;1723772;81;20144;-75
2022/10/30 03:43:35;;;;;;;;;;;;;;;14.32;68.54;99925.00;1726807;80;20166;-75
2022/10/30 03:46:02;;;;;;;;;;;;;;;14.29;68.64;99925.33;1725765;81;20546;-74
2022/10/30 03:48:30;;;;;;;;;;;;;;;14.26;68.75;99922.46;1722402;80;20145;-74
2022/10/30 03:50:58;;;;;;;;;;;;;;;14.23;68.81;99926.77;1713576;81;23352;-75
2022/10/30 03:53:25;;;;;;;;;;;;;;;14.22;68.94;99937.55;1727114;81;20997;-75
2022/10/30 03:55:52;;;;;;;;;;;;;;;14.21;69.03;99930.08;1722130;81;20491;-75
2022/10/30 03:58:19;;;;;;;;;;;;;;;14.19;69.09;99928.58;1724902;80;20433;-76
2022/10/30 04:00:47;;;;;;;;;;;;;;;14.19;69.15;99929.41;1715158;82;20434;-74
2022/10/30 04:03:14;;;;;;;;;;;;;;;14.18;69.18;99926.39;1720801;81;21828;-74
2022/10/30 04:05:44;;;;;;;;;;;;;;;14.18;69.20;99922.40;1707050;82;20177;-74
2022/10/30 04:08:12;;;;;;;;;;;;;;;14.19;69.23;99925.42;1704519;81;20204;-74
2022/10/30 04:10:42;;;;;;;;;;;;;;;14.18;69.26;99944.98;1715052;81;20195;-75
2022/10/30 04:13:12;;;;;;;;;;;;;;;14.15;69.36;99937.83;1704426;80;20484;-75
2022/10/30 04:15:41;;;;;;;;;;;;;;;14.14;69.41;99940.15;1720703;81;22273;-76
2022/10/30 04:18:12;;;;;;;;;;;;;;;14.14;69.40;99929.52;1720395;81;20171;-74
2022/10/30 04:20:39;;;;;;;;;;;;;;;14.12;69.36;99933.67;1712615;80;20175;-79
2022/10/30 04:23:08;;;;;;;;;;;;;;;14.12;69.35;99937.66;1729154;80;20423;-74
2022/10/30 04:25:37;;;;;;;;;;;;;;;14.12;69.30;99938.15;1710570;80;20134;-74
2022/10/30 04:28:07;;;;;;;;;;;;;;;14.12;69.27;99936.82;1711486;81;21604;-74
2022/10/30 04:30:35;;;;;;;;;;;;;;;14.11;69.25;99937.31;1710158;80;20531;-73
2022/10/30 04:33:09;;;;;;;;;;;;;;;14.08;69.22;99946.90;1717777;81;20525;-74
2022/10/30 04:35:39;;;;;;;;;;;;;;;14.07;69.25;99940.42;1712061;81;21578;-74
2022/10/30 04:38:12;;;;;;;;;;;;;;;14.06;69.23;99938.75;1720196;80;20162;-75
2022/10/30 04:40:43;;;;;;;;;;;;;;;14.03;69.21;99946.55;1721651;81;20689;-78
2022/10/30 04:43:13;;;;;;;;;;;;;;;14.03;69.18;99946.55;1715400;81;20422;-74
2022/10/30 04:45:41;;;;;;;;;;;;;;;14.04;69.16;99944.23;1708487;81;20213;-76
2022/10/30 04:48:12;;;;;;;;;;;;;;;14.01;69.12;99935.25;1713859;80;20568;-74
2022/10/30 04:50:41;;;;;;;;;;;;;;;13.96;69.07;99937.02;1711848;81;20208;-75
2022/10/30 04:53:14;;;;;;;;;;;;;;;13.95;69.04;99944.66;1718670;81;22373;-74
2022/10/30 04:55:43;;;;;;;;;;;;;;;13.95;69.00;99947.80;1708238;82;20716;-75
2022/10/30 04:58:10;;;;;;;;;;;;;;;13.93;68.99;99947.13;1707955;82;20231;-74
2022/10/30 05:00:38;;;;;;;;;;;;;;;13.91;69.05;99949.11;1708585;82;20458;-75
2022/10/30 05:03:19;;;;;;;;;;;;;;;13.87;69.13;99951.72;1707646;82;20168;-75
2022/10/30 05:05:47;;;;;;;;;;;;;;;13.84;69.15;99949.38;1731761;81;22245;-74
2022/10/30 05:08:14;;;;;;;;;;;;;;;13.83;69.19;99946.38;1716916;81;21214;-74
2022/10/30 05:10:41;;;;;;;;;;;;;;;13.81;69.20;99957.66;1720311;81;20478;-75
2022/10/30 05:13:10;;;;;;;;;;;;;;;13.79;69.22;99951.64;1711580;82;20712;-74
2022/10/30 05:15:37;;;;;;;;;;;;;;;13.76;69.25;99954.11;1703277;83;20194;-75
2022/10/30 05:18:03;;;;;;;;;;;;;;;13.73;69.41;99958.41;1689601;83;21809;-75
2022/10/30 05:20:30;;;;;;;;;;;;;;;13.69;69.49;99955.70;1709329;82;20182;-74
2022/10/30 05:22:58;;;;;;;;;;;;;;;13.68;69.59;99954.03;1716336;80;20146;-74
2022/10/30 05:25:25;;;;;;;;;;;;;;;13.65;69.61;99949.88;1738422;80;21235;-73
2022/10/30 05:27:58;;;;;;;;;;;;;;;13.60;69.77;99953.45;1740261;80;20172;-76
2022/10/30 05:30:29;;;;;;;;;;;;;;;13.58;69.77;99962.56;1720479;81;21902;-76
2022/10/30 05:33:02;;;;;;;;;;;;;;;13.55;69.87;99959.73;1734598;80;20188;-75
2022/10/30 05:35:31;;;;;;;;;;;;;;;13.53;69.95;99974.14;1694767;81;20173;-74
2022/10/30 05:37:59;;;;;;;;;;;;;;;13.50;70.08;99972.59;1736647;80;20463;-75
2022/10/30 05:40:26;;;;;;;;;;;;;;;13.45;70.24;99977.05;1707111;80;20171;-75
2022/10/30 05:42:52;;;;;;;;;;;;;;;13.44;70.34;99983.83;1717989;82;21826;-74
2022/10/30 05:45:19;;;;;;;;;;;;;;;13.42;70.43;99985.80;1709366;80;20211;-74
2022/10/30 05:48:01;;;;;;;;;;;;;;;13.41;70.61;99990.73;1716162;80;20183;-74
2022/10/30 05:50:31;;;;;;;;;;;;;;;13.41;70.70;99993.39;1724076;82;20516;-73
2022/10/30 05:53:15;;;;;;;;;;;;;;;13.46;70.77;100005.73;1713477;81;20220;-74
2022/10/30 05:55:43;;;;;;;;;;;;;;;13.51;70.80;100007.46;1719981;81;22597;-74
2022/10/30 05:58:11;;;;;;;;;;;;;;;13.55;70.76;100011.47;1725064;80;20195;-74
2022/10/30 06:00:41;;;;;;;;;;;;;;;13.59;70.64;100018.13;1695167;81;20226;-74
2022/10/30 06:03:10;;;;;;;;;;;;;;;13.63;70.52;100025.33;1719964;80;20428;-74
2022/10/30 06:05:38;;;;;;;;;;;;;;;13.65;70.40;100020.69;1730002;81;20433;-75
2022/10/30 06:08:06;;;;;;;;;;;;;;;13.67;70.31;100011.59;1700957;82;21866;-73
2022/10/30 06:10:35;;;;;;;;;;;;;;;13.73;70.27;100019.45;1717254;82;20846;-77
2022/10/30 06:13:07;;;;;;;;;;;;;;;13.78;70.17;100021.15;1719373;81;20183;-76
2022/10/30 06:15:37;;;;;;;;;;;;;;;13.80;69.91;100023.65;1725100;80;21086;-75
2022/10/30 06:18:05;;;;;;;;;;;;;;;13.81;69.70;100019.54;1724971;81;20195;-75
2022/10/30 06:20:42;;;;;;;;;;;;;;;13.82;69.50;100019.87;1736752;80;21958;-74
2022/10/30 06:23:28;;;;;;;;;;;;;;;13.85;69.09;100027.53;1738762;80;20518;-74
2022/10/30 06:25:57;;;;;;;;;;;;;;;13.87;68.93;100024.72;1716437;81;20209;-75
2022/10/30 06:28:31;;;;;;;;;;;;;;;13.86;68.63;100017.25;1712530;82;21374;-77
2022/10/30 06:30:58;;;;;;;;;;;;;;;13.87;68.46;100027.37;1710534;81;20219;-77
2022/10/30 06:33:24;;;;;;;;;;;;;;;13.88;68.34;100026.39;1712393;81;22533;-78
2022/10/30 06:35:51;;;;;;;;;;;;;;;13.90;68.33;100023.94;1732900;81;20198;-74
2022/10/30 06:38:18;;;;;;;;;;;;;;;13.95;68.19;100024.80;1710467;81;20191;-75
2022/10/30 06:40:47;;;;;;;;;;;;;;;14.00;68.10;100033.99;1708901;82;21033;-75
2022/10/30 06:43:25;;;;;;;;;;;;;;;14.09;67.84;100038.02;1719948;81;20165;-76
2022/10/30 06:45:57;;;;;;;;;;;;;;;14.15;67.76;100040.91;1715012;81;21806;-76
2022/10/30 06:48:24;;;;;;;;;;;;;;;14.22;67.39;100038.00;1716356;80;20219;-76
2022/10/30 06:50:54;;;;;;;;;;;;;;;14.30;67.33;100042.55;1714115;82;20175;-79
2022/10/30 06:53:21;;;;;;;;;;;;;;;14.32;66.42;100040.07;1690876;82;21739;-77
2022/10/30 06:55:57;;;;;;;;;;;;;;;14.34;66.54;100038.58;1721585;81;20195;-77
2022/10/30 06:58:41;;;;;;;;;;;;;;;14.38;66.56;100047.06;1709496;82;22463;-75
2022/10/30 07:01:10;;;;;;;;;;;;;;;14.38;66.10;100052.38;1722987;80;20276;-77
2022/10/30 07:03:38;;;;;;;;;;;;;;;14.31;65.22;100046.38;1699797;80;20781;-78
2022/10/30 07:06:06;;;;;;;;;;;;;;;14.26;65.26;100038.52;1721416;82;20934;-75
2022/10/30 07:08:32;;;;;;;;;;;;;;;14.26;65.23;100045.16;1715643;82;20227;-73
2022/10/30 07:10:59;;;;;;;;;;;;;;;14.30;65.35;100050.52;1727439;80;21844;-74
2022/10/30 07:13:45;;;;;;;;;;;;;;;14.37;65.11;100044.07;1725069;82;20172;-73
2022/10/30 07:16:18;;;;;;;;;;;;;;;14.41;64.69;100045.45;1715839;82;20193;-73
2022/10/30 07:18:46;;;;;;;;;;;;;;;14.44;64.61;100035.83;1701932;82;20490;-75
2022/10/30 07:21:12;;;;;;;;;;;;;;;14.49;64.26;100041.56;1717309;81;20191;-77
2022/10/30 07:23:40;;;;;;;;;;;;;;;14.50;63.76;100036.59;1744209;80;21921;-78
2022/10/30 07:26:09;;;;;;;;;;;;;;;14.49;63.29;100041.56;1712967;82;20496;-78
2022/10/30 07:28:38;;;;;;;;;;;;;;;14.46;62.95;100043.18;1729368;80;20811;-77
2022/10/30 07:31:21;;;;;;;;;;;;;;;14.44;62.84;100047.79;1721705;82;21169;-77
2022/10/30 07:33:53;;;;;;;;;;;;;;;14.42;62.91;100055.92;1720537;82;20196;-77
2022/10/30 07:36:23;;;;;;;;;;;;;;;14.41;62.80;100054.25;1713857;80;20638;-76
2022/10/30 07:38:51;;;;;;;;;;;;;;;14.43;62.71;100059.41;1727575;81;20232;-76
2022/10/30 07:41:23;;;;;;;;;;;;;;;14.42;62.58;100063.06;1723655;82;20497;-77
2022/10/30 07:43:51;;;;;;;;;;;;;;;14.42;62.84;100065.72;1718401;81;20968;-78
2022/10/30 07:46:38;;;;;;;;;;;;;;;14.43;62.90;100068.71;1697206;82;20194;-78
2022/10/30 07:49:06;;;;;;;;;;;;;;;14.43;62.88;100071.37;1733851;81;22856;-81
2022/10/30 07:51:42;;;;;;;;;;;;;;;14.42;63.01;100069.70;1714152;81;20142;-85
2022/10/30 07:54:09;;;;;;;;;;;;;;;14.43;62.98;100069.55;1750491;80;20199;-77
2022/10/30 07:56:42;;;;;;;;;;;;;;;14.47;63.04;100067.44;1718057;81;20463;-77
2022/10/30 07:59:20;;;;;;;;;;;;;;;14.52;62.91;100067.32;1708340;81;20193;-75
2022/10/30 08:01:59;;;;;;;;;;;;;;;14.53;62.66;100071.65;1707017;81;21858;-77
2022/10/30 08:04:27;;;;;;;;;;;;;;;14.54;62.43;100065.84;1718748;81;20528;-75
2022/10/30 08:06:57;;;;;;;;;;;;;;;14.55;62.33;100064.34;1751712;80;20166;-76
2022/10/30 08:09:23;;;;;;;;;;;;;;;14.58;62.13;100071.20;1740034;80;20339;-73
2022/10/30 08:11:50;;;;;;;;;;;;;;;14.59;61.59;100066.22;1731564;80;21149;-71
2022/10/30 08:14:17;;;;;;;;;;;;;;;14.60;61.50;100074.03;1728206;81;21777;-75
2022/10/30 08:16:43;;;;;;;;;;;;;;;14.64;61.41;100072.39;1724369;81;20798;-73
2022/10/30 08:19:10;;;;;;;;;;;;;;;14.68;61.45;100070.61;1722983;81;20201;-74
2022/10/30 08:21:36;;;;;;;;;;;;;;;14.74;61.25;100072.62;1728760;80;21363;-73
2022/10/30 08:24:09;;;;;;;;;;;;;;;14.79;61.02;100061.04;1710412;82;20172;-73
2022/10/30 08:26:38;;;;;;;;;;;;;;;14.86;60.00;100066.08;1719639;81;21858;-74
2022/10/30 08:29:04;;;;;;;;;;;;;;;14.90;59.56;100065.26;1726341;80;20589;-73
2022/10/30 08:31:31;;;;;;;;;;;;;;;14.94;58.98;100069.75;1726802;81;20223;-73
2022/10/30 08:34:04;;;;;;;;;;;;;;;14.96;58.98;100067.30;1717285;80;20488;-73
2022/10/30 08:36:32;;;;;;;;;;;;;;;15.01;58.86;100066.81;1722043;81;20177;-73
2022/10/30 08:39:02;;;;;;;;;;;;;;;15.03;58.48;100065.66;1736802;80;20202;-73
2022/10/30 08:41:33;;;;;;;;;;;;;;;15.07;58.60;100070.19;1714753;81;20755;-73
2022/10/30 08:43:59;;;;;;;;;;;;;;;15.08;58.11;100069.19;1739947;80;20186;-73
2022/10/30 08:46:28;;;;;;;;;;;;;;;15.06;58.01;100076.50;1745877;80;20487;-72
2022/10/30 08:48:54;;;;;;;;;;;;;;;15.03;57.76;100070.14;1730636;81;20461;-75
2022/10/30 08:51:21;;;;;;;;;;;;;;;14.99;57.99;100070.13;1726489;80;21313;-73
2022/10/30 08:53:49;;;;;;;;;;;;;;;14.96;57.89;100077.94;1709943;81;20492;-73
2022/10/30 08:56:16;;;;;;;;;;;;;;;14.94;57.99;100066.59;1716326;81;20641;-79
2022/10/30 08:58:54;;;;;;;;;;;;;;;14.95;58.00;100060.78;1702026;81;20573;-76
2022/10/30 09:01:21;;;;;;;;;;;;;;;15.00;58.03;100058.50;1735349;80;20218;-74
2022/10/30 09:04:06;;;;;;;;;;;;;;;15.00;57.74;100061.98;1748933;80;22080;-75
2022/10/30 09:06:52;;;;;;;;;;;;;;;15.00;57.75;100054.51;1725553;81;20187;-74
2022/10/30 09:09:20;;;;;;;;;;;;;;;15.00;57.36;100048.69;1706076;81;20181;-76
2022/10/30 09:11:48;;;;;;;;;;;;;;;15.04;57.66;100054.02;1712182;81;20369;-74
2022/10/30 09:14:16;;;;;;;;;;;;;;;15.12;57.37;100050.58;1742099;81;20171;-77
2022/10/30 09:16:43;;;;;;;;;;;;;;;15.16;56.68;100059.92;1725196;81;22319;-74
2022/10/30 09:19:10;;;;;;;;;;;;;;;15.21;56.08;100052.78;1727939;81;20159;-75
2022/10/30 09:21:38;;;;;;;;;;;;;;;15.24;56.19;100049.79;1720647;82;20561;-75
2022/10/30 09:24:05;;;;;;;;;;;;;;;15.26;55.95;100054.48;1727729;82;20378;-76
2022/10/30 09:26:36;;;;;;;;;;;;;;;15.29;56.32;100051.48;1743274;80;20182;-76
2022/10/30 09:29:10;;;;;;;;;;;;;;;15.38;56.55;100055.36;1750740;80;22633;-75
2022/10/30 09:31:42;;;;;;;;;;;;;;;15.48;57.11;100049.07;1748582;80;20219;-75
2022/10/30 09:34:10;;;;;;;;;;;;;;;15.56;56.76;100051.77;1729388;81;20164;-76
2022/10/30 09:36:46;;;;;;;;;;;;;;;15.44;56.42;100060.05;1708755;82;20458;-74
2022/10/30 09:39:12;;;;;;;;;;;;;;;15.37;56.55;100060.34;1722414;81;20741;-71
2022/10/30 09:42:00;;;;;;;;;;;;;;;15.29;56.55;100063.47;1718628;82;21808;-70
2022/10/30 09:44:52;;;;;;;;;;;;;;;15.24;56.82;100055.11;1720132;82;20192;-73
2022/10/30 09:47:35;;;;;;;;;;;;;;;15.23;56.88;100056.94;1720793;82;20175;-72
2022/10/30 09:50:25;;;;;;;;;;;;;;;15.22;56.91;100052.61;1712302;82;20552;-72
2022/10/30 09:53:07;;;;;;;;;;;;;;;15.23;56.87;100057.44;1717072;81;20435;-70
2022/10/30 09:55:48;;;;;;;;;;;;;;;15.27;57.03;100061.47;1702396;82;23478;-70
2022/10/30 09:58:43;;;;;;;;;;;;;;;15.32;56.87;100057.81;1717365;82;20150;-74
2022/10/30 10:01:25;;;;;;;;;;;;;;;15.35;56.66;100066.33;1733663;80;20193;-73
2022/10/30 10:04:07;;;;;;;;;;;;;;;15.36;56.53;100056.52;1714740;82;20439;-72
2022/10/30 10:06:43;;;;;;;;;;;;;;;15.31;56.12;100055.66;1714712;82;20470;-75
2022/10/30 10:09:24;;;;;;;;;;;;;;;15.27;55.84;100056.15;1720212;82;21808;-73
2022/10/30 10:12:04;;;;;;;;;;;;;;;15.19;55.79;100066.25;1712061;80;20813;-74
2022/10/30 10:14:35;;;;;;;;;;;;;;;15.15;56.07;100054.23;1724297;81;20830;-74
2022/10/30 10:17:02;;;;;;;;;;;;;;;15.17;56.10;100053.61;1718511;81;21206;-69
2022/10/30 10:19:52;;;;;;;;;;;;;;;15.23;56.27;100052.95;1722160;81;20245;-70
2022/10/30 10:22:25;;;;;;;;;;;;;;;15.32;56.25;100056.48;1708495;81;21874;-70
2022/10/30 10:24:51;;;;;;;;;;;;;;;15.34;55.35;100047.84;1711531;82;20278;-70
2022/10/30 10:27:38;;;;;;;;;;;;;;;15.32;55.32;100053.82;1718850;83;20337;-70
2022/10/30 10:30:22;;;;;;;;;;;;;;;15.27;55.15;100054.31;1717252;82;20485;-71
2022/10/30 10:32:59;;;;;;;;;;;;;;;15.30;55.30;100051.33;1718890;80;20469;-71
2022/10/30 10:35:47;;;;;;;;;;;;;;;15.45;55.27;100056.39;1720497;81;21997;-72
2022/10/30 10:38:40;;;;;;;;;;;;;;;15.62;54.67;100055.95;1695561;82;20147;-74
2022/10/30 10:41:33;;;;;;;;;;;;;;;15.68;54.53;100044.66;1710779;81;20433;-72
2022/10/30 10:44:19;;;;;;;;;;;;;;;15.66;54.32;100049.33;1708830;81;20452;-75
2022/10/30 10:47:21;;;;;;;;;;;;;;;15.65;54.34;100051.66;1714741;82;20180;-72
2022/10/30 10:49:58;;;;;;;;;;;;;;;15.55;53.93;100045.61;1711880;81;23015;-73
2022/10/30 10:52:29;;;;;;;;;;;;;;;15.49;54.22;100040.92;1725623;80;20206;-74
2022/10/30 10:55:01;;;;;;;;;;;;;;;15.50;54.46;100044.41;1703951;81;20221;-73
2022/10/30 10:57:33;;;;;;;;;;;;;;;15.46;54.20;100042.58;1708793;82;20603;-74
2022/10/30 11:00:02;;;;;;;;;;;;;;;15.39;54.56;100042.88;1702498;82;20158;-74
2022/10/30 11:02:40;;;;;;;;;;;;;;;15.33;54.49;100039.52;1720230;81;21826;-75
2022/10/30 11:05:16;;;;;;;;;;;;;;;15.26;54.90;100049.16;1708264;82;20173;-76
2022/10/30 11:07:46;;;;;;;;;;;;;;;15.18;55.17;100048.62;1712948;80;20229;-73
2022/10/30 11:10:14;;;;;;;;;;;;;;;15.16;55.42;100043.47;1723962;80;20445;-70
2022/10/30 11:12:42;;;;;;;;;;;;;;;15.16;55.74;100044.80;1710698;81;20193;-70
2022/10/30 11:15:30;;;;;;;;;;;;;;;15.18;55.81;100047.29;1694597;82;22021;-73
2022/10/30 11:18:03;;;;;;;;;;;;;;;15.13;55.64;100051.73;1712146;82;20211;-70
2022/10/30 11:20:45;;;;;;;;;;;;;;;15.06;55.75;100053.89;1691770;84;20463;-70
2022/10/30 11:23:41;;;;;;;;;;;;;;;15.01;55.91;100046.37;1714829;81;20947;-70
2022/10/30 11:26:21;;;;;;;;;;;;;;;14.99;56.11;100052.84;1707509;82;20191;-71
2022/10/30 11:28:54;;;;;;;;;;;;;;;14.95;56.29;100043.50;1706646;81;22503;-72
2022/10/30 11:31:39;;;;;;;;;;;;;;;14.97;56.37;100042.87;1711229;82;20302;-71
2022/10/30 11:33:57;;;;;;;;;;;;;;;14.99;56.37;100043.53;1683423;83;20197;-72
2022/10/30 11:36:25;;;;;;;;;;;;;;;14.98;56.32;100036.05;1694770;82;20516;-72
2022/10/30 11:38:51;;;;;;;;;;;;;;;14.94;56.33;100041.34;1711794;82;21431;-73
2022/10/30 11:41:19;;;;;;;;;;;;;;;14.88;56.37;100038.83;1692444;82;20258;-73
2022/10/30 11:43:46;;;;;;;;;;;;;;;14.88;56.63;100038.83;1715789;82;20205;-71
2022/10/30 11:46:16;;;;;;;;;;;;;;;14.94;56.66;100040.50;1708892;82;20175;-72
2022/10/30 11:48:43;;;;;;;;;;;;;;;14.95;56.54;100031.03;1697337;82;20549;-72
2022/10/30 11:51:10;;;;;;;;;;;;;;;14.92;56.49;100039.83;1724982;82;20192;-72
2022/10/30 11:53:48;;;;;;;;;;;;;;;14.88;56.33;100033.51;1722088;82;22476;-72
2022/10/30 11:56:19;;;;;;;;;;;;;;;14.83;56.21;100033.63;1722130;82;20171;-72
2022/10/30 11:58:56;;;;;;;;;;;;;;;14.82;56.43;100027.98;1739618;80;20197;-72
2022/10/30 12:01:35;;;;;;;;;;;;;;;14.84;56.62;100034.80;1756817;80;20445;-72
2022/10/30 12:04:14;;;;;;;;;;;;;;;14.86;55.95;100027.98;1753829;80;20463;-72
2022/10/30 12:06:42;;;;;;;;;;;;;;;14.82;55.90;100034.13;1737167;81;22375;-72
2022/10/30 12:09:12;;;;;;;;;;;;;;;14.78;56.09;100030.13;1744840;80;20437;-72
2022/10/30 12:11:42;;;;;;;;;;;;;;;14.78;56.30;100036.77;1745961;80;20170;-72
2022/10/30 12:14:16;;;;;;;;;;;;;;;14.78;56.02;100036.77;1756663;80;20408;-70
2022/10/30 12:16:44;;;;;;;;;;;;;;;14.78;55.96;100029.30;1701296;80;20181;-71
2022/10/30 12:19:14;;;;;;;;;;;;;;;14.80;55.92;100036.61;1751755;80;22604;-71
2022/10/30 12:21:46;;;;;;;;;;;;;;;14.84;55.87;100035.30;1746322;80;20522;-71
2022/10/30 12:24:26;;;;;;;;;;;;;;;14.80;55.45;100029.47;1752794;80;20287;-71
2022/10/30 12:26:53;;;;;;;;;;;;;;;14.77;55.42;100031.13;1746996;80;20442;-71
2022/10/30 12:29:22;;;;;;;;;;;;;;;14.78;55.57;100037.27;1743174;80;20149;-71
2022/10/30 12:31:54;;;;;;;;;;;;;;;14.73;55.28;100032.41;1750482;80;21817;-70
2022/10/30 12:34:32;;;;;;;;;;;;;;;14.69;55.21;100035.05;1750111;80;20219;-71
2022/10/30 12:37:05;;;;;;;;;;;;;;;14.60;55.25;100033.33;1753388;80;20169;-71
2022/10/30 12:39:44;;;;;;;;;;;;;;;14.58;55.52;100024.19;1755304;80;20424;-71
2022/10/30 12:42:16;;;;;;;;;;;;;;;14.64;55.78;100030.69;1760142;79;20164;-73
2022/10/30 12:44:49;;;;;;;;;;;;;;;14.76;55.25;100030.75;1743393;80;20211;-71
2022/10/30 12:47:26;;;;;;;;;;;;;;;14.85;55.18;100036.46;1741794;80;20757;-72
2022/10/30 12:50:08;;;;;;;;;;;;;;;14.94;55.22;100029.86;1725922;80;20135;-71
2022/10/30 12:53:14;;;;;;;;;;;;;;;14.97;54.41;100024.25;1705294;83;20564;-70
2022/10/30 12:55:47;;;;;;;;;;;;;;;14.96;53.95;100027.88;1705691;83;20138;-71
2022/10/30 12:58:33;;;;;;;;;;;;;;;14.88;53.48;100034.01;1705977;82;21850;-71
2022/10/30 13:01:23;;;;;;;;;;;;;;;14.77;53.49;100032.95;1706364;83;20185;-71
2022/10/30 13:03:52;;;;;;;;;;;;;;;14.69;53.66;100034.22;1709827;83;20423;-71